createdAt,value
2019-04-20T00:00:09.082Z,9.33
2019-04-20T00:02:35.767Z,9.32
2019-04-20T00:05:03.785Z,9.29
2019-04-20T00:07:35.628Z,9.34
2019-04-20T00:10:08.765Z,9.23
2019-04-20T00:12:46.064Z,9.08
2019-04-20T00:15:00.608Z,9.14
2019-04-20T00:17:28.791Z,9.34
2019-04-20T00:19:57.830Z,9.20
2019-04-20T00:22:40.913Z,9.21
2019-04-20T00:25:15.497Z,9.17
2019-04-20T00:28:17.648Z,9.04
2019-04-20T00:30:48.161Z,8.96
2019-04-20T00:33:07.313Z,8.52
2019-04-20T00:35:27.158Z,8.65
2019-04-20T00:37:55.009Z,8.67
2019-04-20T00:40:23.675Z,8.64
2019-04-20T00:42:54.896Z,8.85
2019-04-20T00:45:25.862Z,8.85
2019-04-20T00:47:59.586Z,8.71
2019-04-20T00:50:35.827Z,8.66
2019-04-20T00:53:05.791Z,8.63
2019-04-20T00:55:19.078Z,8.59
2019-04-20T00:57:54.676Z,8.24
2019-04-20T01:00:31.588Z,8.36
2019-04-20T01:03:00.987Z,8.39
2019-04-20T01:05:39.396Z,8.41
2019-04-20T01:08:04.527Z,8.21
2019-04-20T01:10:37.090Z,8.24
2019-04-20T01:13:06.747Z,8.21
2019-04-20T01:15:38.652Z,8.13
2019-04-20T01:17:58.340Z,8.13
2019-04-20T01:20:27.821Z,8.11
2019-04-20T01:23:03.294Z,8.16
2019-04-20T01:25:30.850Z,8.02
2019-04-20T01:28:09.085Z,8.10
2019-04-20T01:30:30.162Z,7.82
2019-04-20T01:33:08.898Z,7.70
2019-04-20T01:35:39.522Z,7.75
2019-04-20T01:38:12.411Z,7.84
2019-04-20T01:40:21.230Z,7.88
2019-04-20T01:42:49.086Z,7.69
2019-04-20T01:45:23.561Z,7.72
2019-04-20T01:47:50.824Z,7.57
2019-04-20T01:50:21.255Z,7.65
2019-04-20T01:52:56.923Z,7.69
2019-04-20T01:55:35.827Z,7.75
2019-04-20T01:58:05.067Z,7.59
2019-04-20T02:00:34.929Z,7.60
2019-04-20T02:03:05.545Z,7.61
2019-04-20T02:05:35.877Z,7.49
2019-04-20T02:08:08.722Z,7.24
2019-04-20T02:10:41.083Z,7.34
2019-04-20T02:13:03.393Z,7.04
2019-04-20T02:15:38.563Z,7.33
2019-04-20T02:18:14.912Z,7.03
2019-04-20T02:20:50.283Z,7.21
2019-04-20T02:23:10.550Z,7.20
2019-04-20T02:25:29.071Z,7.03
2019-04-20T02:28:14.778Z,7.08
2019-04-20T02:33:34.789Z,6.95
2019-04-20T02:36:25.040Z,6.97
2019-04-20T02:41:49.734Z,6.79
2019-04-20T02:44:27.118Z,6.69
2019-04-20T02:46:33.680Z,6.66
2019-04-20T02:49:10.643Z,6.86
2019-04-20T02:51:33.052Z,6.93
2019-04-20T02:54:11.068Z,6.91
2019-04-20T02:56:39.874Z,6.90
2019-04-20T03:01:17.607Z,6.76
2019-04-20T03:03:34.524Z,6.71
2019-04-20T03:06:10.234Z,6.68
2019-04-20T03:08:47.955Z,6.71
2019-04-20T03:11:23.462Z,6.65
2019-04-20T03:13:41.737Z,6.61
2019-04-20T03:16:12.417Z,6.52
2019-04-20T03:18:41.347Z,6.60
2019-04-20T03:21:12.729Z,6.53
2019-04-20T03:23:57.279Z,6.51
2019-04-20T03:26:17.600Z,6.54
2019-04-20T03:28:51.464Z,6.56
2019-04-20T03:31:46.447Z,6.40
2019-04-20T03:34:23.182Z,6.44
2019-04-20T03:36:46.931Z,6.46
2019-04-20T03:38:53.857Z,6.43
2019-04-20T03:41:16.568Z,6.14
2019-04-20T03:43:32.865Z,6.35
2019-04-20T03:46:07.376Z,6.33
2019-04-20T03:48:46.853Z,6.33
2019-04-20T03:51:23.617Z,6.38
2019-04-20T03:54:04.689Z,6.47
2019-04-20T03:56:47.979Z,6.40
2019-04-20T03:59:33.245Z,6.40
2019-04-20T04:02:22.249Z,6.31
2019-04-20T04:04:54.499Z,6.47
2019-04-20T04:07:15.338Z,6.42
2019-04-20T04:09:46.704Z,6.38
2019-04-20T04:12:16.875Z,6.39
2019-04-20T04:14:34.529Z,6.50
2019-04-20T04:17:04.212Z,6.41
2019-04-20T04:19:36.578Z,6.44
2019-04-20T04:22:15.120Z,6.36
2019-04-20T04:24:40.977Z,6.34
2019-04-20T04:27:15.035Z,6.38
2019-04-20T04:29:48.603Z,6.39
2019-04-20T04:32:35.059Z,6.53
2019-04-20T04:34:43.318Z,6.59
2019-04-20T04:37:17.987Z,6.56
2019-04-20T04:39:49.068Z,6.56
2019-04-20T04:42:39.235Z,6.60
2019-04-20T04:44:37.487Z,6.72
2019-04-20T04:47:00.225Z,6.69
2019-04-20T04:49:31.138Z,6.75
2019-04-20T04:52:02.284Z,6.82
2019-04-20T04:54:33.825Z,6.82
2019-04-20T04:56:52.649Z,6.77
2019-04-20T04:59:21.399Z,6.84
2019-04-20T05:01:53.115Z,6.82
2019-04-20T05:04:41.512Z,7.00
2019-04-20T05:07:05.134Z,6.99
2019-04-20T05:09:20.453Z,7.30
2019-04-20T05:11:55.868Z,7.54
2019-04-20T05:14:24.516Z,7.60
2019-04-20T05:17:04.189Z,7.84
2019-04-20T05:19:36.812Z,7.82
2019-04-20T05:22:13.790Z,7.89
2019-04-20T05:24:48.214Z,8.02
2019-04-20T05:27:24.906Z,8.05
2019-04-20T05:29:38.153Z,8.18
2019-04-20T05:32:11.182Z,8.20
2019-04-20T05:34:58.206Z,7.93
2019-04-20T05:37:37.165Z,8.13
2019-04-20T05:39:59.011Z,8.30
2019-04-20T05:42:29.999Z,8.48
2019-04-20T05:44:55.953Z,8.57
2019-04-20T05:47:24.074Z,8.78
2019-04-20T05:49:49.901Z,8.97
2019-04-20T05:52:35.034Z,9.06
2019-04-20T05:54:51.411Z,9.21
2019-04-20T05:57:25.143Z,9.33
2019-04-20T06:00:00.011Z,9.64
2019-04-20T06:02:25.061Z,9.64
2019-04-20T06:05:00.470Z,9.66
2019-04-20T06:07:21.180Z,10.00
2019-04-20T06:09:46.344Z,10.07
2019-04-20T06:15:00.351Z,10.42
2019-04-20T06:17:53.203Z,10.57
2019-04-20T06:20:27.218Z,10.53
2019-04-20T06:22:57.419Z,10.80
2019-04-20T06:27:56.880Z,11.31
2019-04-20T06:30:18.901Z,11.56
2019-04-20T06:33:06.851Z,11.73
2019-04-20T06:35:46.581Z,12.07
2019-04-20T06:38:00.767Z,12.77
2019-04-20T06:40:42.275Z,13.24
2019-04-20T06:42:58.852Z,13.36
2019-04-20T06:45:28.189Z,14.00
2019-04-20T06:47:54.597Z,13.78
2019-04-20T06:50:18.203Z,14.00
2019-04-20T06:52:55.650Z,14.08
2019-04-20T06:55:19.794Z,14.08
2019-04-20T06:57:57.274Z,14.33
2019-04-20T07:00:18.152Z,14.59
2019-04-20T07:02:53.897Z,14.33
2019-04-20T07:07:53.376Z,14.45
2019-04-20T07:10:37.388Z,14.50
2019-04-20T07:12:46.638Z,15.00
2019-04-20T07:15:19.851Z,14.81
2019-04-20T07:18:02.357Z,14.79
2019-04-20T07:20:27.851Z,14.89
2019-04-20T07:23:11.562Z,14.84
2019-04-20T07:25:34.144Z,15.11
2019-04-20T07:27:58.254Z,15.27
2019-04-20T07:30:30.326Z,15.26
2019-04-20T07:33:04.545Z,15.38
2019-04-20T07:35:26.306Z,15.54
2019-04-20T07:40:24.481Z,15.48
2019-04-20T07:42:56.479Z,15.58
2019-04-20T07:47:52.733Z,15.55
2019-04-20T07:50:18.883Z,15.72
2019-04-20T07:52:43.863Z,16.08
2019-04-20T07:57:46.914Z,16.47
2019-04-20T08:00:26.249Z,16.67
2019-04-20T08:02:57.362Z,16.75
2019-04-20T08:05:30.493Z,16.77
2019-04-20T08:07:53.850Z,16.91
2019-04-20T08:10:30.680Z,16.90
2019-04-20T08:13:09.515Z,17.43
2019-04-20T08:15:46.186Z,17.43
2019-04-20T08:18:01.259Z,17.58
2019-04-20T08:20:35.515Z,17.58
2019-04-20T08:23:06.408Z,17.81
2019-04-20T08:25:23.524Z,17.38
2019-04-20T08:27:46.599Z,17.76
2019-04-20T08:30:33.878Z,18.05
2019-04-20T08:33:09.541Z,18.07
2019-04-20T08:35:47.710Z,18.16
2019-04-20T08:38:37.278Z,18.50
2019-04-20T08:40:43.717Z,18.40
2019-04-20T08:43:20.116Z,18.62
2019-04-20T08:45:42.041Z,18.38
2019-04-20T08:48:17.412Z,18.82
2019-04-20T08:50:37.414Z,19.21
2019-04-20T08:53:20.491Z,19.11
2019-04-20T08:55:33.537Z,19.51
2019-04-20T08:57:49.269Z,19.72
2019-04-20T09:00:28.861Z,19.68
2019-04-20T09:02:51.681Z,19.88
2019-04-20T09:05:30.269Z,19.53
2019-04-20T09:07:57.761Z,19.78
2019-04-20T09:10:39.439Z,19.89
2019-04-20T09:13:01.526Z,19.80
2019-04-20T09:15:14.774Z,20.22
2019-04-20T09:17:54.805Z,20.22
2019-04-20T09:20:33.065Z,20.51
2019-04-20T09:23:07.055Z,20.80
2019-04-20T09:28:09.483Z,21.40
2019-04-20T09:30:37.062Z,20.86
2019-04-20T09:33:16.820Z,20.84
2019-04-20T09:35:44.044Z,20.60
2019-04-20T09:38:14.417Z,20.98
2019-04-20T09:40:48.267Z,21.10
2019-04-20T09:43:06.659Z,21.04
2019-04-20T09:45:49.003Z,21.50
2019-04-20T09:48:21.223Z,21.26
2019-04-20T09:51:05.013Z,21.29
2019-04-20T09:53:24.730Z,21.10
2019-04-20T09:56:04.713Z,21.29
2019-04-20T09:58:24.030Z,21.78
2019-04-20T10:00:56.805Z,22.19
2019-04-20T10:03:10.908Z,22.47
2019-04-20T10:05:38.566Z,22.68
2019-04-20T10:08:09.549Z,22.38
2019-04-20T10:10:40.577Z,21.93
2019-04-20T10:13:05.995Z,22.33
2019-04-20T10:15:35.390Z,22.60
2019-04-20T10:18:03.748Z,22.14
2019-04-20T10:20:34.753Z,22.11
2019-04-20T10:23:00.912Z,21.64
2019-04-20T10:25:28.772Z,21.99
2019-04-20T10:27:57.589Z,22.14
2019-04-20T10:30:26.307Z,22.31
2019-04-20T10:32:55.722Z,21.93
2019-04-20T10:35:23.544Z,21.90
2019-04-20T10:37:55.730Z,22.04
2019-04-20T10:40:37.799Z,22.38
2019-04-20T10:42:53.154Z,22.28
2019-04-20T10:45:21.280Z,22.47
2019-04-20T10:47:49.082Z,22.53
2019-04-20T10:50:16.899Z,22.48
2019-04-20T10:52:45.810Z,22.22
2019-04-20T10:55:14.729Z,22.55
2019-04-20T10:57:43.812Z,23.19
2019-04-20T11:00:13.422Z,23.27
2019-04-20T11:02:43.959Z,23.25
2019-04-20T11:05:10.837Z,23.01
2019-04-20T11:07:38.832Z,23.19
2019-04-20T11:10:14.729Z,23.29
2019-04-20T11:12:35.941Z,23.54
2019-04-20T11:15:03.637Z,23.72
2019-04-20T11:17:31.813Z,23.72
2019-04-20T11:20:01.197Z,23.58
2019-04-20T11:22:30.291Z,23.79
2019-04-20T11:24:58.569Z,22.96
2019-04-20T11:27:26.416Z,23.07
2019-04-20T11:29:54.138Z,22.93
2019-04-20T11:32:22.204Z,22.62
2019-04-20T11:34:51.175Z,22.94
2019-04-20T11:37:19.357Z,22.60
2019-04-20T11:39:47.350Z,22.72
2019-04-20T11:42:15.204Z,22.69
2019-04-20T11:44:42.865Z,22.67
2019-04-20T11:47:10.717Z,22.85
2019-04-20T11:49:39.657Z,23.14
2019-04-20T11:52:07.775Z,23.39
2019-04-20T11:54:36.610Z,23.30
2019-04-20T11:57:04.600Z,23.55
2019-04-20T11:59:32.775Z,23.58
2019-04-20T12:02:10.827Z,23.26
2019-04-20T12:04:49.967Z,22.95
2019-04-20T12:07:12.922Z,23.22
2019-04-20T12:09:41.874Z,23.14
2019-04-20T12:12:23.484Z,22.68
2019-04-20T12:14:39.041Z,22.58
2019-04-20T12:17:07.939Z,23.06
2019-04-20T12:19:36.282Z,23.14
2019-04-20T12:22:05.655Z,22.88
2019-04-20T12:24:33.434Z,23.08
2019-04-20T12:27:01.126Z,22.95
2019-04-20T12:29:29.937Z,22.88
2019-04-20T12:32:01.282Z,23.13
2019-04-20T12:34:28.573Z,23.13
2019-04-20T12:36:58.282Z,22.95
2019-04-20T12:39:26.981Z,22.95
2019-04-20T12:41:58.836Z,22.95
2019-04-20T12:44:24.147Z,23.04
2019-04-20T12:46:52.088Z,23.17
2019-04-20T12:49:19.951Z,23.10
2019-04-20T12:51:53.742Z,23.06
2019-04-20T12:54:18.499Z,23.10
2019-04-20T12:56:46.607Z,23.02
2019-04-20T12:59:15.714Z,23.02
2019-04-20T13:01:43.793Z,22.96
2019-04-20T13:04:12.139Z,22.59
2019-04-20T13:06:40.878Z,22.76
2019-04-20T13:09:10.656Z,22.61
2019-04-20T13:11:50.384Z,22.75
2019-04-20T13:14:26.247Z,22.83
2019-04-20T13:16:55.144Z,22.72
2019-04-20T13:19:23.536Z,22.91
2019-04-20T13:21:52.668Z,22.87
2019-04-20T13:24:20.929Z,22.82
2019-04-20T13:26:49.100Z,22.96
2019-04-20T13:29:17.123Z,22.97
2019-04-20T13:31:44.931Z,22.78
2019-04-20T13:34:13.282Z,22.87
2019-04-20T13:36:42.098Z,22.83
2019-04-20T13:39:10.232Z,22.76
2019-04-20T13:41:38.186Z,22.61
2019-04-20T13:44:06.573Z,22.80
2019-04-20T13:46:34.362Z,22.62
2019-04-20T13:49:03.017Z,22.59
2019-04-20T13:51:31.003Z,22.60
2019-04-20T13:53:59.440Z,22.29
2019-04-20T13:56:28.004Z,22.36
2019-04-20T13:59:02.146Z,22.72
2019-04-20T14:01:51.609Z,22.63
2019-04-20T14:04:24.464Z,22.62
2019-04-20T14:06:53.357Z,22.43
2019-04-20T14:09:21.406Z,22.52
2019-04-20T14:11:49.451Z,22.57
2019-04-20T14:14:17.348Z,22.68
2019-04-20T14:16:45.419Z,22.51
2019-04-20T14:19:14.379Z,22.69
2019-04-20T14:21:42.189Z,22.61
2019-04-20T14:24:10.971Z,22.47
2019-04-20T14:26:40.748Z,22.51
2019-04-20T14:29:09.038Z,22.35
2019-04-20T14:31:37.598Z,22.37
2019-04-20T14:34:06.768Z,22.30
2019-04-20T14:36:34.914Z,22.23
2019-04-20T14:39:04.422Z,22.18
2019-04-20T14:41:32.411Z,22.23
2019-04-20T14:44:01.562Z,22.18
2019-04-20T14:46:29.546Z,22.22
2019-04-20T14:48:58.759Z,22.26
2019-04-20T14:51:27.761Z,22.33
2019-04-20T14:53:55.810Z,22.23
2019-04-20T14:56:23.582Z,22.49
2019-04-20T14:58:55.765Z,22.47
2019-04-20T15:01:42.833Z,22.46
2019-04-20T15:04:16.664Z,22.58
2019-04-20T15:06:40.103Z,22.52
2019-04-20T15:09:08.725Z,22.62
2019-04-20T15:11:39.869Z,22.56
2019-04-20T15:14:06.860Z,22.54
2019-04-20T15:16:34.837Z,22.25
2019-04-20T15:19:07.715Z,22.21
2019-04-20T15:21:35.702Z,22.31
2019-04-20T15:24:03.767Z,22.22
2019-04-20T15:26:31.506Z,22.21
2019-04-20T15:28:59.973Z,22.12
2019-04-20T15:31:28.190Z,22.10
2019-04-20T15:33:57.064Z,22.28
2019-04-20T15:36:24.802Z,22.29
2019-04-20T15:38:53.340Z,22.38
2019-04-20T15:41:21.317Z,22.21
2019-04-20T15:43:49.174Z,22.22
2019-04-20T15:46:17.215Z,22.13
2019-04-20T15:48:46.156Z,22.07
2019-04-20T15:51:14.167Z,22.19
2019-04-20T15:53:42.016Z,22.06
2019-04-20T15:56:11.672Z,22.14
2019-04-20T15:58:39.041Z,22.04
2019-04-20T16:01:08.294Z,22.05
2019-04-20T16:03:41.562Z,21.94
2019-04-20T16:06:11.354Z,21.95
2019-04-20T16:08:41.940Z,21.92
2019-04-20T16:11:11.220Z,21.88
2019-04-20T16:13:44.138Z,22.07
2019-04-20T16:16:09.966Z,22.00
2019-04-20T16:18:39.151Z,21.99
2019-04-20T16:21:13.303Z,21.83
2019-04-20T16:23:43.927Z,21.82
2019-04-20T16:26:17.709Z,21.62
2019-04-20T16:28:45.869Z,21.47
2019-04-20T16:31:15.415Z,21.53
2019-04-20T16:33:44.293Z,21.70
2019-04-20T16:36:12.374Z,21.76
2019-04-20T16:38:41.465Z,21.71
2019-04-20T16:41:10.434Z,21.68
2019-04-20T16:43:43.013Z,21.49
2019-04-20T16:46:08.749Z,21.58
2019-04-20T16:48:37.930Z,21.63
2019-04-20T16:51:06.925Z,21.56
2019-04-20T16:53:34.971Z,21.41
2019-04-20T16:56:02.876Z,21.55
2019-04-20T16:58:31.837Z,21.39
2019-04-20T17:00:59.501Z,21.20
2019-04-20T17:03:39.007Z,21.18
2019-04-20T17:05:56.529Z,21.10
2019-04-20T17:08:24.979Z,21.11
2019-04-20T17:10:53.674Z,21.13
2019-04-20T17:13:34.158Z,21.28
2019-04-20T17:15:51.969Z,21.04
2019-04-20T17:18:19.736Z,20.86
2019-04-20T17:20:48.373Z,20.79
2019-04-20T17:23:17.539Z,20.90
2019-04-20T17:25:46.021Z,20.67
2019-04-20T17:28:27.258Z,20.69
2019-04-20T17:31:03.703Z,20.44
2019-04-20T17:33:50.763Z,20.51
2019-04-20T17:36:15.658Z,20.49
2019-04-20T17:38:43.427Z,20.41
2019-04-20T17:41:22.477Z,20.23
2019-04-20T17:43:57.794Z,20.22
2019-04-20T17:46:17.359Z,20.20
2019-04-20T17:48:45.124Z,20.04
2019-04-20T17:51:24.001Z,19.91
2019-04-20T17:53:58.557Z,19.93
2019-04-20T17:56:24.459Z,19.54
2019-04-20T17:58:52.399Z,19.46
2019-04-20T18:01:47.826Z,19.24
2019-04-20T18:04:37.014Z,18.93
2019-04-20T18:06:47.841Z,18.80
2019-04-20T18:09:24.935Z,18.87
2019-04-20T18:11:40.307Z,19.09
2019-04-20T18:14:17.155Z,19.16
2019-04-20T18:16:51.069Z,18.84
2019-04-20T18:19:13.906Z,18.81
2019-04-20T18:21:43.415Z,18.39
2019-04-20T18:24:16.541Z,18.17
2019-04-20T18:26:59.163Z,18.10
2019-04-20T18:29:32.289Z,18.11
2019-04-20T18:31:45.334Z,18.43
2019-04-20T18:34:22.708Z,18.31
2019-04-20T18:36:49.450Z,17.94
2019-04-20T18:39:22.150Z,17.47
2019-04-20T18:41:52.161Z,17.17
2019-04-20T18:44:20.200Z,17.25
2019-04-20T18:47:09.525Z,17.18
2019-04-20T18:49:26.924Z,17.04
2019-04-20T18:51:44.288Z,16.80
2019-04-20T18:54:19.461Z,16.51
2019-04-20T18:56:45.940Z,16.50
2019-04-20T18:59:11.438Z,16.24
2019-04-20T19:01:42.006Z,16.10
2019-04-20T19:04:09.868Z,16.10
2019-04-20T19:06:38.104Z,16.09
2019-04-20T19:09:10.088Z,16.15
2019-04-20T19:11:43.746Z,16.09
2019-04-20T19:14:17.263Z,16.72
2019-04-20T19:16:59.765Z,16.95
2019-04-20T19:19:33.370Z,17.02
2019-04-20T19:21:54.152Z,17.14
2019-04-20T19:24:26.000Z,17.07
2019-04-20T19:26:56.121Z,17.09
2019-04-20T19:29:30.068Z,17.01
2019-04-20T19:32:15.820Z,16.89
2019-04-20T19:34:37.747Z,16.78
2019-04-20T19:37:02.223Z,16.97
2019-04-20T19:39:32.270Z,16.93
2019-04-20T19:41:55.514Z,16.63
2019-04-20T19:44:28.742Z,16.58
2019-04-20T19:47:09.119Z,16.33
2019-04-20T19:49:25.077Z,16.43
2019-04-20T19:52:20.215Z,16.57
2019-04-20T19:54:36.855Z,16.54
2019-04-20T19:56:58.707Z,16.84
2019-04-20T19:59:24.860Z,16.45
2019-04-20T20:01:42.837Z,16.20
2019-04-20T20:04:11.852Z,16.25
2019-04-20T20:06:47.172Z,16.12
2019-04-20T20:09:12.615Z,15.88
2019-04-20T20:11:42.314Z,15.62
2019-04-20T20:14:11.128Z,15.31
2019-04-20T20:16:56.502Z,15.20
2019-04-20T20:19:16.778Z,14.76
2019-04-20T20:21:54.296Z,14.53
2019-04-20T20:24:06.085Z,14.30
2019-04-20T20:26:40.712Z,13.89
2019-04-20T20:29:12.131Z,13.80
2019-04-20T20:31:48.459Z,13.75
2019-04-20T20:34:15.788Z,13.60
2019-04-20T20:36:43.652Z,13.66
2019-04-20T20:39:10.756Z,13.84
2019-04-20T20:41:47.799Z,13.86
2019-04-20T20:44:06.955Z,13.87
2019-04-20T20:46:36.521Z,13.74
2019-04-20T20:49:28.861Z,13.79
2019-04-20T20:51:52.803Z,13.53
2019-04-20T20:54:07.671Z,13.49
2019-04-20T20:56:30.878Z,13.47
2019-04-20T20:59:04.139Z,13.44
2019-04-20T21:01:37.795Z,13.31
2019-04-20T21:03:56.735Z,12.93
2019-04-20T21:06:24.554Z,13.15
2019-04-20T21:08:56.069Z,13.24
2019-04-20T21:11:27.138Z,12.99
2019-04-20T21:13:52.263Z,13.11
2019-04-20T21:16:25.700Z,13.47
2019-04-20T21:19:05.956Z,13.57
2019-04-20T21:21:34.919Z,13.52
2019-04-20T21:23:58.157Z,13.25
2019-04-20T21:26:27.085Z,13.39
2019-04-20T21:28:50.086Z,13.45
2019-04-20T21:31:22.377Z,13.71
2019-04-20T21:33:47.232Z,13.92
2019-04-20T21:36:21.187Z,14.23
2019-04-20T21:38:45.120Z,14.51
2019-04-20T21:41:16.217Z,14.71
2019-04-20T21:43:44.635Z,14.76
2019-04-20T21:46:13.866Z,14.66
2019-04-20T21:48:55.926Z,14.69
2019-04-20T21:51:27.444Z,14.64
2019-04-20T21:53:41.181Z,14.54
2019-04-20T21:56:10.211Z,14.23
2019-04-20T21:58:43.548Z,14.12
2019-04-20T22:01:20.116Z,14.27
2019-04-20T22:03:38.306Z,14.45
2019-04-20T22:06:06.769Z,14.37
2019-04-20T22:08:34.765Z,14.33
2019-04-20T22:11:03.860Z,14.32
2019-04-20T22:13:37.697Z,13.92
2019-04-20T22:16:05.433Z,13.68
2019-04-20T22:18:31.916Z,13.39
2019-04-20T22:21:11.182Z,13.08
2019-04-20T22:23:46.438Z,13.30
2019-04-20T22:26:16.331Z,13.12
2019-04-20T22:28:28.160Z,12.84
2019-04-20T22:30:55.863Z,12.61
2019-04-20T22:33:33.602Z,12.59
2019-04-20T22:36:02.181Z,12.30
2019-04-20T22:38:33.055Z,12.41
2019-04-20T22:41:07.772Z,12.33
2019-04-20T22:43:33.915Z,12.26
2019-04-20T22:45:59.648Z,12.13
2019-04-20T22:48:27.287Z,11.94
2019-04-20T22:51:17.909Z,11.93
2019-04-20T22:53:36.445Z,11.88
2019-04-20T22:56:14.771Z,11.77
2019-04-20T22:58:38.793Z,11.71
2019-04-20T23:00:57.859Z,11.58
2019-04-20T23:03:22.951Z,11.64
2019-04-20T23:05:50.995Z,11.46
2019-04-20T23:08:20.369Z,11.37
2019-04-20T23:10:49.701Z,11.30
2019-04-20T23:13:22.080Z,11.24
2019-04-20T23:15:54.070Z,10.95
2019-04-20T23:18:16.277Z,10.95
2019-04-20T23:20:44.269Z,10.96
2019-04-20T23:23:16.963Z,10.97
2019-04-20T23:25:41.362Z,10.78
2019-04-20T23:28:12.338Z,10.89
2019-04-20T23:30:40.619Z,10.76
2019-04-20T23:33:07.894Z,10.70
2019-04-20T23:35:37.535Z,10.46
2019-04-20T23:38:11.083Z,10.35
2019-04-20T23:40:34.262Z,10.42
2019-04-20T23:43:17.801Z,10.39
2019-04-20T23:45:49.858Z,10.32
2019-04-20T23:48:28.478Z,10.16
2019-04-20T23:51:08.439Z,10.17
2019-04-20T23:53:39.285Z,10.21
2019-04-20T23:55:52.075Z,10.34
2019-04-20T23:58:21.052Z,10.24
